createdAt,value
2023-03-25T00:01:29.963Z,23.77
2023-03-25T00:04:04.481Z,25.03
2023-03-25T00:06:37.978Z,24.93
2023-03-25T00:09:12.182Z,24.40
2023-03-25T00:11:45.790Z,24.33
2023-03-25T00:14:19.585Z,25.77
2023-03-25T00:16:53.437Z,23.90
2023-03-25T00:19:28.016Z,23.33
2023-03-25T00:22:01.843Z,24.27
2023-03-25T00:24:35.875Z,23.97
2023-03-25T00:27:08.702Z,23.43
2023-03-25T00:29:42.238Z,23.47
2023-03-25T00:32:16.487Z,24.03
2023-03-25T00:34:50.222Z,23.27
2023-03-25T00:37:25.888Z,22.43
2023-03-25T00:40:00.135Z,22.70
2023-03-25T00:42:35.141Z,22.60
2023-03-25T00:45:11.207Z,24.53
2023-03-25T00:47:44.591Z,22.47
2023-03-25T00:50:18.639Z,23.13
2023-03-25T00:52:53.824Z,23.03
2023-03-25T00:55:27.208Z,24.10
2023-03-25T00:58:00.857Z,24.37
2023-03-25T01:00:34.462Z,23.50
2023-03-25T01:03:09.920Z,23.37
2023-03-25T01:05:43.392Z,23.83
2023-03-25T01:08:18.074Z,24.60
2023-03-25T01:10:51.330Z,25.33
2023-03-25T01:13:25.634Z,26.30
2023-03-25T01:15:58.891Z,27.57
2023-03-25T01:18:35.028Z,26.87
2023-03-25T01:21:10.643Z,26.77
2023-03-25T01:23:44.653Z,25.67
2023-03-25T01:26:18.276Z,26.47
2023-03-25T01:28:51.423Z,25.03
2023-03-25T01:31:26.234Z,26.00
2023-03-25T01:33:59.676Z,26.43
2023-03-25T01:36:33.827Z,26.97
2023-03-25T01:39:08.636Z,26.50
2023-03-25T01:41:49.148Z,25.87
2023-03-25T01:44:58.434Z,25.67
2023-03-25T01:47:33.082Z,25.27
2023-03-25T01:50:08.947Z,25.30
2023-03-25T01:52:42.719Z,24.10
2023-03-25T01:55:18.151Z,24.40
2023-03-25T01:57:54.627Z,24.47
2023-03-25T02:00:28.889Z,23.57
2023-03-25T02:03:03.445Z,22.70
2023-03-25T02:05:43.906Z,24.63
2023-03-25T02:08:18.280Z,23.80
2023-03-25T02:10:52.518Z,23.83
2023-03-25T02:13:26.468Z,24.40
2023-03-25T02:16:29.590Z,23.07
2023-03-25T02:19:26.381Z,24.00
2023-03-25T02:22:43.314Z,23.67
2023-03-25T02:25:39.892Z,23.10
2023-03-25T02:28:26.386Z,23.60
2023-03-25T02:31:38.130Z,23.17
2023-03-25T02:34:46.394Z,23.90
2023-03-25T02:37:59.583Z,22.77
2023-03-25T02:40:41.769Z,23.57
2023-03-25T02:43:21.537Z,23.18
2023-03-25T02:46:01.122Z,22.67
2023-03-25T02:48:39.490Z,24.23
2023-03-25T02:51:19.324Z,24.87
2023-03-25T02:53:54.613Z,26.60
2023-03-25T02:56:33.315Z,26.03
2023-03-25T02:59:09.952Z,25.03
2023-03-25T03:01:45.765Z,25.33
2023-03-25T03:04:19.472Z,25.13
2023-03-25T03:06:54.909Z,26.00
2023-03-25T03:09:39.717Z,25.13
2023-03-25T03:12:29.587Z,25.23
2023-03-25T03:15:17.422Z,24.53
2023-03-25T03:17:58.532Z,23.73
2023-03-25T03:20:41.076Z,25.67
2023-03-25T03:25:54.353Z,24.37
2023-03-25T03:28:34.300Z,24.67
2023-03-25T03:31:13.196Z,24.50
2023-03-25T03:34:11.179Z,27.00
2023-03-25T03:36:49.582Z,26.13
2023-03-25T03:39:29.771Z,26.30
2023-03-25T03:42:07.995Z,27.67
2023-03-25T03:44:45.617Z,27.27
2023-03-25T03:47:23.932Z,26.93
2023-03-25T03:50:01.308Z,25.77
2023-03-25T03:52:38.746Z,25.73
2023-03-25T03:55:15.770Z,25.77
2023-03-25T03:57:56.117Z,25.23
2023-03-25T04:00:34.291Z,25.97
2023-03-25T04:03:14.779Z,25.60
2023-03-25T04:05:55.159Z,23.93
2023-03-25T04:08:35.825Z,25.33
2023-03-25T04:11:18.176Z,23.90
2023-03-25T04:16:24.940Z,24.90
2023-03-25T04:18:58.772Z,24.47
2023-03-25T04:21:31.966Z,24.67
2023-03-25T04:24:08.419Z,24.73
2023-03-25T04:26:42.466Z,23.33
2023-03-25T04:29:15.905Z,25.50
2023-03-25T04:31:50.882Z,26.17
2023-03-25T04:34:24.910Z,25.57
2023-03-25T04:36:59.065Z,26.20
2023-03-25T04:39:32.888Z,26.07
2023-03-25T04:42:06.785Z,27.20
2023-03-25T04:44:40.501Z,26.80
2023-03-25T04:47:18.126Z,26.67
2023-03-25T04:49:51.587Z,26.97
2023-03-25T04:52:25.611Z,26.30
2023-03-25T04:54:58.996Z,27.10
2023-03-25T04:57:32.843Z,30.37
2023-03-25T05:00:07.833Z,31.20
2023-03-25T05:02:46.242Z,30.90
2023-03-25T05:05:21.564Z,33.60
2023-03-25T05:07:58.535Z,35.70
2023-03-25T05:10:32.650Z,37.20
2023-03-25T05:13:07.828Z,37.77
2023-03-25T05:15:41.295Z,40.40
2023-03-25T05:18:17.271Z,38.70
2023-03-25T05:20:51.776Z,41.33
2023-03-25T05:23:25.170Z,41.23
2023-03-25T05:25:58.736Z,42.15
2023-03-25T05:28:32.145Z,44.17
2023-03-25T05:31:08.626Z,45.50
2023-03-25T05:33:43.718Z,44.90
2023-03-25T05:36:17.789Z,41.87
2023-03-25T05:38:51.466Z,43.87
2023-03-25T05:41:32.927Z,46.00
2023-03-25T05:44:07.187Z,49.43
2023-03-25T05:46:40.258Z,47.67
2023-03-25T05:49:12.830Z,47.90
2023-03-25T05:51:45.406Z,48.10
2023-03-25T05:54:17.981Z,50.40
2023-03-25T05:56:50.579Z,47.85
2023-03-25T06:01:55.532Z,47.20
2023-03-25T06:04:29.313Z,45.67
2023-03-25T06:07:02.093Z,49.10
2023-03-25T06:09:35.282Z,49.77
2023-03-25T06:12:08.938Z,52.17
2023-03-25T06:14:43.303Z,49.83
2023-03-25T06:17:16.272Z,46.50
2023-03-25T06:19:48.862Z,47.57
2023-03-25T06:22:22.340Z,42.13
2023-03-25T06:24:55.038Z,41.55
2023-03-25T06:27:28.430Z,43.10
2023-03-25T06:30:01.022Z,42.80
2023-03-25T06:32:33.761Z,40.13
2023-03-25T06:35:07.609Z,39.73
2023-03-25T06:37:40.369Z,41.02
2023-03-25T06:40:18.276Z,40.00
2023-03-25T06:42:51.670Z,37.98
2023-03-25T06:45:30.181Z,36.80
2023-03-25T06:48:18.527Z,39.58
2023-03-25T06:50:51.113Z,37.75
2023-03-25T06:53:23.906Z,35.10
2023-03-25T06:55:57.900Z,34.10
2023-03-25T06:58:35.462Z,35.00
2023-03-25T07:01:09.400Z,33.50
2023-03-25T07:03:43.002Z,32.03
2023-03-25T07:06:16.388Z,30.68
2023-03-25T07:08:48.967Z,29.10
2023-03-25T07:11:26.615Z,27.00
2023-03-25T07:13:59.234Z,28.77
2023-03-25T07:16:31.856Z,28.05
2023-03-25T07:19:04.393Z,25.88
2023-03-25T07:21:37.167Z,25.88
2023-03-25T07:24:10.637Z,27.27
2023-03-25T07:26:43.135Z,25.92
2023-03-25T07:29:16.532Z,25.45
2023-03-25T07:31:49.359Z,23.27
2023-03-25T07:34:21.896Z,22.25
2023-03-25T07:36:54.672Z,21.52
2023-03-25T07:39:27.654Z,21.02
2023-03-25T07:42:00.446Z,21.37
2023-03-25T07:44:55.743Z,21.00
2023-03-25T07:47:29.184Z,15.38
2023-03-25T07:50:02.124Z,13.30
2023-03-25T07:52:36.543Z,15.10
2023-03-25T07:55:10.650Z,15.28
2023-03-25T07:57:44.574Z,13.93
2023-03-25T08:00:19.004Z,14.83
2023-03-25T08:02:53.261Z,16.33
2023-03-25T08:05:25.774Z,16.13
2023-03-25T08:08:01.255Z,17.25
2023-03-25T08:10:35.423Z,18.73
2023-03-25T08:13:08.003Z,20.43
2023-03-25T08:15:40.802Z,20.48
2023-03-25T08:18:13.387Z,20.02
2023-03-25T08:20:45.743Z,19.05
2023-03-25T08:23:20.225Z,15.30
2023-03-25T08:25:54.236Z,14.18
2023-03-25T08:28:27.610Z,12.83
2023-03-25T08:31:02.798Z,12.47
2023-03-25T08:33:41.368Z,11.07
2023-03-25T08:36:20.431Z,11.33
2023-03-25T08:38:54.353Z,10.50
2023-03-25T08:41:28.145Z,11.80
2023-03-25T08:44:01.725Z,12.47
2023-03-25T08:46:35.383Z,13.13
2023-03-25T08:49:09.050Z,12.63
2023-03-25T08:51:42.851Z,12.37
2023-03-25T08:54:16.456Z,10.47
2023-03-25T08:56:50.525Z,11.40
2023-03-25T08:59:24.794Z,9.60
2023-03-25T09:02:00.789Z,9.50
2023-03-25T09:04:34.748Z,8.83
2023-03-25T09:07:12.586Z,9.73
2023-03-25T09:09:46.043Z,10.23
2023-03-25T09:12:19.503Z,10.20
2023-03-25T09:14:52.831Z,10.73
2023-03-25T09:17:27.528Z,12.13
2023-03-25T09:20:01.003Z,11.17
2023-03-25T09:22:34.323Z,11.57
2023-03-25T09:25:10.937Z,11.47
2023-03-25T09:27:43.896Z,12.20
2023-03-25T09:30:19.661Z,10.93
2023-03-25T09:32:53.186Z,9.80
2023-03-25T09:35:26.775Z,9.47
2023-03-25T09:38:00.196Z,8.77
2023-03-25T09:40:35.789Z,8.70
2023-03-25T09:43:22.498Z,8.53
2023-03-25T09:45:58.290Z,9.37
2023-03-25T09:48:38.331Z,9.70
2023-03-25T09:51:19.579Z,8.53
2023-03-25T09:53:57.491Z,8.00
2023-03-25T09:56:41.895Z,7.90
2023-03-25T09:59:19.828Z,8.67
2023-03-25T10:02:03.600Z,9.47
2023-03-25T10:04:57.460Z,9.47
2023-03-25T10:07:46.227Z,8.53
2023-03-25T10:10:27.184Z,8.83
2023-03-25T10:13:08.913Z,9.80
2023-03-25T10:15:46.249Z,9.43
2023-03-25T10:18:39.121Z,9.03
2023-03-25T10:21:18.245Z,9.30
2023-03-25T10:23:59.214Z,8.33
2023-03-25T10:26:38.692Z,8.07
2023-03-25T10:29:16.989Z,8.33
2023-03-25T10:31:54.373Z,6.13
2023-03-25T10:34:37.580Z,5.30
2023-03-25T10:37:18.367Z,8.03
2023-03-25T10:39:52.318Z,6.30
2023-03-25T10:42:33.741Z,6.17
2023-03-25T10:45:14.506Z,6.10
2023-03-25T10:47:51.418Z,5.50
2023-03-25T10:50:26.361Z,4.67
2023-03-25T10:53:00.301Z,5.27
2023-03-25T10:55:37.622Z,5.40
2023-03-25T10:58:12.672Z,4.60
2023-03-25T11:00:46.008Z,5.13
2023-03-25T11:03:23.664Z,4.90
2023-03-25T11:05:57.121Z,5.33
2023-03-25T11:08:30.731Z,4.30
2023-03-25T11:11:06.262Z,6.00
2023-03-25T11:13:41.714Z,4.53
2023-03-25T11:16:16.073Z,6.30
2023-03-25T11:18:49.756Z,5.50
2023-03-25T11:21:23.968Z,5.20
2023-03-25T11:23:57.956Z,5.40
2023-03-25T11:26:38.727Z,6.30
2023-03-25T11:29:16.950Z,5.80
2023-03-25T11:31:59.423Z,6.23
2023-03-25T11:34:33.321Z,7.23
2023-03-25T11:37:17.505Z,6.67
2023-03-25T11:39:55.781Z,5.60
2023-03-25T11:42:34.417Z,4.67
2023-03-25T11:45:20.390Z,5.07
2023-03-25T11:47:54.944Z,5.97
2023-03-25T11:50:30.718Z,4.60
2023-03-25T11:53:06.223Z,5.47
2023-03-25T11:55:47.086Z,7.87
2023-03-25T11:58:23.532Z,7.13
2023-03-25T12:01:05.496Z,7.53
2023-03-25T12:03:39.827Z,9.57
2023-03-25T12:06:20.466Z,19.93
2023-03-25T12:08:55.645Z,22.47
2023-03-25T12:11:34.064Z,14.75
2023-03-25T12:14:27.699Z,15.90
2023-03-25T12:17:07.718Z,163.30
2023-03-25T12:19:54.425Z,70.20
2023-03-25T12:22:46.424Z,97.83
2023-03-25T12:25:33.990Z,25.67
2023-03-25T12:28:32.480Z,66.10
2023-03-25T12:31:11.579Z,14.63
2023-03-25T12:33:59.642Z,8.07
2023-03-25T12:36:45.732Z,5.10
2023-03-25T12:39:43.333Z,6.70
2023-03-25T12:42:29.792Z,5.90
2023-03-25T12:45:23.938Z,5.00
2023-03-25T12:48:03.991Z,5.33
2023-03-25T12:50:49.828Z,4.63
2023-03-25T12:53:46.250Z,4.70
2023-03-25T12:56:37.806Z,4.37
2023-03-25T12:59:38.647Z,4.20
2023-03-25T13:02:31.822Z,4.10
2023-03-25T13:05:17.655Z,4.07
2023-03-25T13:07:55.986Z,4.37
2023-03-25T13:10:35.567Z,4.50
2023-03-25T13:13:15.746Z,3.93
2023-03-25T13:15:54.659Z,4.00
2023-03-25T13:18:33.000Z,3.83
2023-03-25T13:21:14.187Z,3.63
2023-03-25T13:23:54.129Z,3.83
2023-03-25T13:26:31.624Z,3.47
2023-03-25T13:29:09.177Z,3.70
2023-03-25T13:31:47.061Z,3.67
2023-03-25T13:34:30.067Z,3.67
2023-03-25T13:37:18.061Z,4.00
2023-03-25T13:40:04.379Z,3.70
2023-03-25T13:42:44.441Z,3.30
2023-03-25T13:45:21.433Z,3.73
2023-03-25T13:48:03.870Z,3.80
2023-03-25T13:50:38.010Z,3.73
2023-03-25T13:53:20.317Z,4.30
2023-03-25T13:56:15.115Z,3.70
2023-03-25T13:59:06.512Z,4.70
2023-03-25T14:01:54.940Z,4.28
2023-03-25T14:04:49.128Z,3.63
2023-03-25T14:07:59.427Z,3.57
2023-03-25T14:11:03.192Z,3.33
2023-03-25T14:13:41.232Z,3.75
2023-03-25T14:16:17.462Z,3.30
2023-03-25T14:18:54.086Z,3.57
2023-03-25T14:21:34.219Z,3.80
2023-03-25T14:24:13.040Z,3.50
2023-03-25T14:26:52.303Z,4.40
2023-03-25T14:29:37.819Z,4.10
2023-03-25T14:32:32.654Z,4.03
2023-03-25T14:35:41.878Z,5.07
2023-03-25T14:38:55.123Z,4.40
2023-03-25T14:41:59.097Z,4.17
2023-03-25T14:44:33.505Z,4.10
2023-03-25T14:47:33.071Z,4.17
2023-03-25T14:50:31.026Z,3.80
2023-03-25T14:53:11.901Z,3.80
2023-03-25T14:55:48.696Z,5.00
2023-03-25T14:58:25.314Z,3.97
2023-03-25T15:01:01.142Z,3.80
2023-03-25T15:03:37.488Z,4.37
2023-03-25T15:06:16.465Z,4.07
2023-03-25T15:08:59.729Z,5.30
2023-03-25T15:11:37.471Z,5.00
2023-03-25T15:14:15.495Z,5.03
2023-03-25T15:17:05.030Z,5.03
2023-03-25T15:20:27.741Z,4.80
2023-03-25T15:23:33.128Z,5.30
2023-03-25T15:26:10.977Z,4.93
2023-03-25T15:29:11.549Z,4.53
2023-03-25T15:32:10.035Z,5.70
2023-03-25T15:35:14.804Z,5.90
2023-03-25T15:38:07.200Z,5.37
2023-03-25T15:40:57.770Z,7.03
2023-03-25T15:44:14.988Z,7.40
2023-03-25T15:47:22.192Z,7.00
2023-03-25T15:50:12.959Z,7.83
2023-03-25T15:53:35.907Z,6.57
2023-03-25T15:56:17.832Z,7.27
2023-03-25T15:58:58.906Z,6.20
2023-03-25T16:01:34.498Z,5.60
2023-03-25T16:04:12.865Z,4.50
2023-03-25T16:06:50.747Z,4.97
2023-03-25T16:09:28.695Z,4.20
2023-03-25T16:12:04.576Z,3.93
2023-03-25T16:14:39.434Z,3.87
2023-03-25T16:17:16.676Z,4.40
2023-03-25T16:19:53.221Z,5.07
2023-03-25T16:22:30.514Z,5.63
2023-03-25T16:25:06.798Z,6.43
2023-03-25T16:27:45.643Z,4.80
2023-03-25T16:30:29.268Z,6.33
2023-03-25T16:33:17.469Z,7.20
2023-03-25T16:35:56.650Z,7.47
2023-03-25T16:38:30.902Z,6.87
2023-03-25T16:41:05.792Z,6.93
2023-03-25T16:43:39.529Z,8.60
2023-03-25T16:46:16.407Z,8.00
2023-03-25T16:48:55.094Z,7.77
2023-03-25T16:51:32.329Z,6.30
2023-03-25T16:54:13.383Z,6.37
2023-03-25T16:56:47.014Z,6.73
2023-03-25T16:59:24.432Z,7.23
2023-03-25T17:01:59.659Z,10.77
2023-03-25T17:04:42.176Z,12.00
2023-03-25T17:07:21.109Z,9.10
2023-03-25T17:09:56.970Z,7.20
2023-03-25T17:12:31.964Z,7.67
2023-03-25T17:15:09.485Z,6.30
2023-03-25T17:17:49.718Z,5.20
2023-03-25T17:20:28.271Z,5.70
2023-03-25T17:23:04.583Z,6.03
2023-03-25T17:25:52.087Z,5.67
2023-03-25T17:28:33.884Z,5.80
2023-03-25T17:31:22.047Z,5.15
2023-03-25T17:34:00.696Z,5.13
2023-03-25T17:36:36.445Z,5.20
2023-03-25T17:39:19.112Z,4.60
2023-03-25T17:41:59.161Z,4.47
2023-03-25T17:44:37.474Z,5.00
2023-03-25T17:47:14.713Z,4.33
2023-03-25T17:49:48.346Z,4.10
2023-03-25T17:52:21.745Z,5.00
2023-03-25T17:54:55.342Z,5.73
2023-03-25T17:57:28.797Z,5.70
2023-03-25T18:00:02.202Z,5.77
2023-03-25T18:02:41.846Z,5.30
2023-03-25T18:05:15.982Z,5.00
2023-03-25T18:07:49.482Z,4.83
2023-03-25T18:10:25.710Z,5.57
2023-03-25T18:12:59.345Z,4.93
2023-03-25T18:15:33.454Z,6.50
2023-03-25T18:18:08.216Z,5.93
2023-03-25T18:20:41.672Z,6.37
2023-03-25T18:23:15.837Z,5.53
2023-03-25T18:25:49.405Z,5.50
2023-03-25T18:28:22.894Z,5.87
2023-03-25T18:30:58.873Z,5.73
2023-03-25T18:33:34.912Z,5.50
2023-03-25T18:36:10.690Z,5.20
2023-03-25T18:38:44.716Z,5.30
2023-03-25T18:41:18.563Z,5.70
2023-03-25T18:43:52.184Z,5.63
2023-03-25T18:46:25.777Z,5.97
2023-03-25T18:49:03.060Z,5.40
2023-03-25T18:51:37.670Z,5.57
2023-03-25T18:54:11.084Z,6.37
2023-03-25T18:56:44.629Z,7.20
2023-03-25T18:59:20.792Z,7.00
2023-03-25T19:01:54.194Z,6.63
2023-03-25T19:04:29.776Z,6.47
2023-03-25T19:07:04.227Z,6.27
2023-03-25T19:09:37.594Z,6.27
2023-03-25T19:12:12.132Z,6.47
2023-03-25T19:14:45.404Z,5.83
2023-03-25T19:17:19.027Z,6.20
2023-03-25T19:19:52.401Z,5.50
2023-03-25T19:22:26.220Z,5.80
2023-03-25T19:25:00.101Z,5.55
2023-03-25T19:27:33.637Z,6.47
2023-03-25T19:30:09.118Z,6.77
2023-03-25T19:32:44.306Z,6.20
2023-03-25T19:35:19.139Z,6.97
2023-03-25T19:37:52.540Z,6.80
2023-03-25T19:40:28.762Z,7.03
2023-03-25T19:43:05.396Z,5.95
2023-03-25T19:45:38.840Z,6.30
2023-03-25T19:48:12.440Z,6.27
2023-03-25T19:50:45.632Z,6.13
2023-03-25T19:53:18.607Z,6.90
2023-03-25T19:55:52.983Z,6.83
2023-03-25T19:58:27.469Z,7.03
2023-03-25T20:01:01.748Z,7.50
2023-03-25T20:03:36.586Z,7.90
2023-03-25T20:06:11.554Z,6.97
2023-03-25T20:08:45.163Z,6.17
2023-03-25T20:11:18.731Z,5.33
2023-03-25T20:13:52.568Z,5.73
2023-03-25T20:16:28.007Z,5.50
2023-03-25T20:19:01.295Z,6.43
2023-03-25T20:21:34.976Z,6.50
2023-03-25T20:24:09.509Z,6.10
2023-03-25T20:26:42.806Z,6.10
2023-03-25T20:29:17.851Z,6.83
2023-03-25T20:31:51.339Z,6.90
2023-03-25T20:34:24.823Z,5.90
2023-03-25T20:36:58.226Z,6.57
2023-03-25T20:39:32.019Z,6.40
2023-03-25T20:42:05.823Z,5.43
2023-03-25T20:44:39.456Z,7.33
2023-03-25T20:47:13.651Z,10.33
2023-03-25T20:49:47.267Z,9.67
2023-03-25T20:52:21.049Z,10.03
2023-03-25T20:54:55.786Z,8.60
2023-03-25T20:57:29.343Z,7.00
2023-03-25T21:00:02.740Z,7.67
2023-03-25T21:02:36.118Z,7.23
2023-03-25T21:05:11.245Z,7.67
2023-03-25T21:07:44.858Z,7.60
2023-03-25T21:10:20.360Z,6.93
2023-03-25T21:12:53.733Z,6.70
2023-03-25T21:15:27.544Z,6.87
2023-03-25T21:18:01.225Z,6.87
2023-03-25T21:20:34.733Z,6.10
2023-03-25T21:23:10.003Z,5.67
2023-03-25T21:25:43.572Z,6.77
2023-03-25T21:28:18.161Z,6.30
2023-03-25T21:31:03.490Z,7.07
2023-03-25T21:33:38.576Z,6.57
2023-03-25T21:36:14.822Z,6.47
2023-03-25T21:38:48.775Z,6.27
2023-03-25T21:41:22.435Z,6.40
2023-03-25T21:43:55.492Z,7.03
2023-03-25T21:46:29.571Z,7.20
2023-03-25T21:49:04.565Z,7.17
2023-03-25T21:51:42.924Z,6.50
2023-03-25T21:54:16.316Z,6.50
2023-03-25T21:56:55.132Z,6.43
2023-03-25T21:59:28.840Z,7.10
2023-03-25T22:02:02.446Z,7.93
2023-03-25T22:04:37.877Z,7.93
2023-03-25T22:07:11.244Z,7.40
2023-03-25T22:09:44.700Z,6.70
2023-03-25T22:12:18.266Z,6.00
2023-03-25T22:14:51.947Z,6.63
2023-03-25T22:17:25.310Z,5.80
2023-03-25T22:19:58.660Z,6.20
2023-03-25T22:22:31.681Z,6.60
2023-03-25T22:25:05.643Z,6.03
2023-03-25T22:27:39.652Z,6.50
2023-03-25T22:30:16.937Z,5.87
2023-03-25T22:32:50.399Z,6.47
2023-03-25T22:35:24.136Z,6.10
2023-03-25T22:37:57.855Z,5.63
2023-03-25T22:40:31.142Z,6.53
2023-03-25T22:43:04.731Z,5.97
2023-03-25T22:45:38.193Z,5.87
2023-03-25T22:48:11.714Z,5.70
2023-03-25T22:50:45.733Z,5.70
2023-03-25T22:53:19.540Z,5.90
2023-03-25T22:55:55.458Z,4.83
2023-03-25T22:58:31.636Z,4.63
2023-03-25T23:01:07.633Z,5.33
2023-03-25T23:03:41.666Z,4.73
2023-03-25T23:06:15.672Z,4.47
2023-03-25T23:08:49.139Z,5.10
2023-03-25T23:11:25.592Z,4.90
2023-03-25T23:14:01.862Z,4.67
2023-03-25T23:16:35.990Z,4.23
2023-03-25T23:19:10.967Z,4.30
2023-03-25T23:21:44.727Z,4.00
2023-03-25T23:24:18.110Z,4.00
2023-03-25T23:26:51.581Z,4.20
2023-03-25T23:29:25.122Z,4.07
2023-03-25T23:31:58.553Z,3.90
2023-03-25T23:34:31.935Z,4.10
2023-03-25T23:37:06.739Z,3.60
2023-03-25T23:39:42.153Z,4.30
2023-03-25T23:42:15.972Z,3.70
2023-03-25T23:44:49.935Z,3.73
2023-03-25T23:47:23.430Z,3.27
2023-03-25T23:49:58.275Z,3.70
2023-03-25T23:52:33.631Z,3.47
2023-03-25T23:55:12.538Z,3.70
2023-03-25T23:57:46.164Z,3.60
